Main page
METAR-TAF:

METAR-TAF

Airports :

Cranfield Airport

Cranfield, England

latitude: 52-04N, longitude: 000-37W, elevation: 111 m

Current weather observation

The report was made 4 hours and 30 minutes ago, at 16:50 UTC
Wind 27 kt from the South/Southwest with gusts up to 41 kt
Temperature 19°C
Humidity 73%
Pressure 1004 hPa
Visibility 10 km or more
Scattered clouds at a height of 3000 ft

METAR: EGTC 201650Z 20027G41KT 9999 SCT030 19/14 Q1004

Time: 22:20 (21:20 UTC)

Forecast

The report was made 7 hours and 20 minutes ago, at 14:00 UTC
Forecast valid from 20 at 15 UTC to 20 at 18 UTC
Wind 22 kt from the South/Southwest with gusts up to 35 kt
Visibility 10 km or more
Scattered clouds at a height of 1500 ft
Probability 30% :
Temporary
from 20 at 15 UTC to 20 at 18 UTC
Visibility: 9000 m
Broken clouds at a height of 1400 ft

TAF: EGTC 201400Z 2015/2018 20022G35KT 9999 SCT015 PROB30 TEMPO 2015/2018 9000 BKN014

Weather observations and forecasts of more than 4000 airports (METAR and TAF reports).

The available stations are represented by yellow and red dots on the map.

Hover mouse over dot to see the name of the station.

Then click to see weather observations and forecasts.

To change the map : click on the green buttons with a black cross to zoom in, on the green button with a dash to zoom out, or on the green arrows for adjacent maps.


METAR-TAF: